createdAt,value
2018-07-22T00:02:03.901Z,22.90
2018-07-22T00:04:31.912Z,22.90
2018-07-22T00:06:59.974Z,22.80
2018-07-22T00:09:27.980Z,22.80
2018-07-22T00:14:23.822Z,22.70
2018-07-22T00:16:51.856Z,22.70
2018-07-22T00:19:19.916Z,22.60
2018-07-22T00:21:47.940Z,22.60
2018-07-22T00:24:15.972Z,22.60
2018-07-22T00:26:44.033Z,22.60
2018-07-22T00:29:12.180Z,22.60
2018-07-22T00:31:40.200Z,22.50
2018-07-22T00:36:36.076Z,22.40
2018-07-22T00:39:05.837Z,22.40
2018-07-22T00:41:33.912Z,22.30
2018-07-22T00:44:01.928Z,22.30
2018-07-22T00:46:29.964Z,22.30
2018-07-22T00:48:57.987Z,22.20
2018-07-22T00:51:26.050Z,22.20
2018-07-22T00:53:54.084Z,22.10
2018-07-22T00:56:22.136Z,22.10
2018-07-22T01:01:18.811Z,22.10
2018-07-22T01:03:47.064Z,22.00
2018-07-22T01:06:15.103Z,22.00
2018-07-22T01:08:43.144Z,22.00
2018-07-22T01:11:11.208Z,22.00
2018-07-22T01:13:39.251Z,21.90
2018-07-22T01:18:35.259Z,21.80
2018-07-22T01:21:03.296Z,21.70
2018-07-22T01:23:31.344Z,21.70
2018-07-22T01:25:59.392Z,21.70
2018-07-22T01:30:55.316Z,21.70
2018-07-22T01:33:23.367Z,21.70
2018-07-22T01:35:51.400Z,21.70
2018-07-22T01:38:19.428Z,21.70
2018-07-22T01:40:47.472Z,21.70
2018-07-22T01:43:15.565Z,21.70
2018-07-22T01:45:43.540Z,21.70
2018-07-22T01:48:11.587Z,21.70
2018-07-22T01:50:39.605Z,21.70
2018-07-22T01:53:07.654Z,21.70
2018-07-22T01:55:35.687Z,21.70
2018-07-22T01:58:03.753Z,21.70
2018-07-22T02:00:31.788Z,21.60
2018-07-22T02:03:00.329Z,21.60
2018-07-22T02:05:29.095Z,21.50
2018-07-22T02:07:57.400Z,21.50
2018-07-22T02:10:25.444Z,21.50
2018-07-22T02:12:53.516Z,21.50
2018-07-22T02:15:21.539Z,21.70
2018-07-22T02:20:17.404Z,21.60
2018-07-22T02:22:45.459Z,21.70
2018-07-22T02:25:13.492Z,21.60
2018-07-22T02:27:41.533Z,21.70
2018-07-22T02:30:09.920Z,21.70
2018-07-22T02:32:38.193Z,21.80
2018-07-22T02:35:06.236Z,21.80
2018-07-22T02:37:34.305Z,21.80
2018-07-22T02:40:02.532Z,21.60
2018-07-22T02:42:30.576Z,21.50
2018-07-22T02:44:58.621Z,21.50
2018-07-22T02:47:26.656Z,21.40
2018-07-22T02:52:22.516Z,21.40
2018-07-22T02:54:50.553Z,21.60
2018-07-22T02:57:18.589Z,21.70
2018-07-22T02:59:46.649Z,21.80
2018-07-22T03:02:14.669Z,21.90
2018-07-22T03:07:10.617Z,22.10
2018-07-22T03:09:38.608Z,22.00
2018-07-22T03:12:06.763Z,21.90
2018-07-22T03:14:34.816Z,21.90
2018-07-22T03:17:02.865Z,21.90
2018-07-22T03:19:30.936Z,21.90
2018-07-22T03:21:58.996Z,21.90
2018-07-22T03:24:27.049Z,21.90
2018-07-22T03:26:55.084Z,22.00
2018-07-22T03:29:23.115Z,21.90
2018-07-22T03:31:51.171Z,21.80
2018-07-22T03:34:19.192Z,22.00
2018-07-22T03:36:47.216Z,22.00
2018-07-22T03:39:15.275Z,22.10
2018-07-22T03:41:43.314Z,22.10
2018-07-22T03:44:11.372Z,22.10
2018-07-22T03:49:07.260Z,21.90
2018-07-22T03:51:35.329Z,21.80
2018-07-22T03:54:03.374Z,21.60
2018-07-22T03:56:31.427Z,21.50
2018-07-22T03:58:59.471Z,21.50
2018-07-22T04:01:27.508Z,21.50
2018-07-22T04:03:55.599Z,21.60
2018-07-22T04:06:23.628Z,21.80
2018-07-22T04:08:51.651Z,21.90
2018-07-22T04:13:47.543Z,21.90
2018-07-22T04:16:15.704Z,21.90
2018-07-22T04:18:47.780Z,21.90
2018-07-22T04:21:15.828Z,22.00
2018-07-22T04:23:43.877Z,22.00
2018-07-22T04:28:39.755Z,22.10
2018-07-22T04:31:07.821Z,22.00
2018-07-22T04:33:36.011Z,21.90
2018-07-22T04:36:04.060Z,22.00
2018-07-22T04:38:32.088Z,22.10
2018-07-22T04:43:27.979Z,22.30
2018-07-22T04:45:56.013Z,22.40
2018-07-22T04:48:24.040Z,22.40
2018-07-22T04:50:52.087Z,22.30
2018-07-22T04:53:20.120Z,22.30
2018-07-22T04:55:48.173Z,22.40
2018-07-22T05:00:44.074Z,22.40
2018-07-22T05:03:12.112Z,22.40
2018-07-22T05:05:40.156Z,22.50
2018-07-22T05:08:08.212Z,22.60
2018-07-22T05:10:36.260Z,22.70
2018-07-22T05:13:04.297Z,22.70
2018-07-22T05:15:32.323Z,22.70
2018-07-22T05:18:00.377Z,22.80
2018-07-22T05:20:28.443Z,22.80
2018-07-22T05:22:56.447Z,22.80
2018-07-22T05:27:52.670Z,22.80
2018-07-22T05:30:20.705Z,22.80
2018-07-22T05:32:48.747Z,22.80
2018-07-22T05:35:16.784Z,23.00
2018-07-22T05:37:44.860Z,23.10
2018-07-22T05:40:12.904Z,23.10
2018-07-22T05:42:40.956Z,22.90
2018-07-22T05:45:08.996Z,22.80
2018-07-22T05:47:37.028Z,22.80
2018-07-22T05:50:05.107Z,22.70
2018-07-22T05:52:33.127Z,22.70
2018-07-22T05:55:01.173Z,22.70
2018-07-22T05:59:57.108Z,22.70
2018-07-22T06:02:25.159Z,22.90
2018-07-22T06:04:53.189Z,23.00
2018-07-22T06:07:21.251Z,23.10
2018-07-22T06:09:49.284Z,23.00
2018-07-22T06:12:17.334Z,22.90
2018-07-22T06:14:45.400Z,23.00
2018-07-22T06:17:13.456Z,23.00
2018-07-22T06:19:41.519Z,22.90
2018-07-22T06:22:09.551Z,22.90
2018-07-22T06:24:37.580Z,23.00
2018-07-22T06:27:05.732Z,23.20
2018-07-22T06:29:33.766Z,23.30
2018-07-22T06:32:01.826Z,23.30
2018-07-22T06:36:57.745Z,23.20
2018-07-22T06:41:53.623Z,23.00
2018-07-22T06:44:21.725Z,23.10
2018-07-22T06:46:49.757Z,23.00
2018-07-22T06:49:17.788Z,23.00
2018-07-22T06:51:45.823Z,23.10
2018-07-22T06:54:13.896Z,23.10
2018-07-22T06:56:41.896Z,23.10
2018-07-22T06:59:09.952Z,23.10
2018-07-22T07:01:38.032Z,23.10
2018-07-22T07:04:06.060Z,23.10
2018-07-22T07:06:34.096Z,23.00
2018-07-22T07:09:02.164Z,22.90
2018-07-22T07:13:58.044Z,23.00
2018-07-22T07:16:26.072Z,23.10
2018-07-22T07:21:21.948Z,23.00
2018-07-22T07:23:49.968Z,23.10
2018-07-22T07:28:45.808Z,23.00
2018-07-22T07:31:13.852Z,23.10
2018-07-22T07:33:41.916Z,23.10
2018-07-22T07:36:09.911Z,23.20
2018-07-22T07:38:37.959Z,23.20
2018-07-22T07:41:06.590Z,23.20
2018-07-22T07:43:35.432Z,23.10
2018-07-22T07:46:03.492Z,23.30
2018-07-22T07:48:31.520Z,23.40
2018-07-22T07:50:59.556Z,23.50
2018-07-22T07:53:27.581Z,23.50
2018-07-22T07:55:55.608Z,23.60
2018-07-22T08:00:51.499Z,23.80
2018-07-22T08:03:19.559Z,23.90
2018-07-22T08:05:47.592Z,24.00
2018-07-22T08:08:15.641Z,24.00
2018-07-22T08:10:43.684Z,24.20
2018-07-22T08:13:11.720Z,24.40
2018-07-22T08:15:39.924Z,24.50
2018-07-22T08:18:07.952Z,24.60
2018-07-22T08:20:35.977Z,24.70
2018-07-22T08:23:04.016Z,24.70
2018-07-22T08:25:32.055Z,24.90
2018-07-22T08:32:56.061Z,25.30
2018-07-22T08:35:24.093Z,25.20
2018-07-22T08:37:52.231Z,25.10
2018-07-22T08:40:20.245Z,25.00
2018-07-22T08:42:48.279Z,25.10
2018-07-22T08:45:16.324Z,25.30
2018-07-22T08:47:44.392Z,25.40
2018-07-22T08:50:12.409Z,25.50
2018-07-22T08:52:40.472Z,25.50
2018-07-22T08:55:08.500Z,25.40
2018-07-22T08:57:36.574Z,25.30
2018-07-22T09:00:05.236Z,25.40
2018-07-22T09:05:01.148Z,25.20
2018-07-22T09:07:29.200Z,25.30
2018-07-22T09:09:57.240Z,25.30
2018-07-22T09:12:25.296Z,25.30
2018-07-22T09:17:21.159Z,25.60
2018-07-22T09:19:49.196Z,25.70
2018-07-22T09:24:45.134Z,25.90
2018-07-22T09:27:13.183Z,26.10
2018-07-22T09:29:41.236Z,26.00
2018-07-22T09:32:09.280Z,26.00
2018-07-22T09:34:37.307Z,26.00
2018-07-22T09:39:33.248Z,26.10
2018-07-22T09:42:01.298Z,26.30
2018-07-22T09:44:29.364Z,26.20
2018-07-22T09:46:57.492Z,26.00
2018-07-22T09:49:25.552Z,26.10
2018-07-22T09:51:53.604Z,26.20
2018-07-22T09:54:21.666Z,26.30
2018-07-22T09:56:49.705Z,26.40
2018-07-22T09:59:17.797Z,26.50
2018-07-22T10:01:45.796Z,26.50
2018-07-22T10:04:13.837Z,26.30
2018-07-22T10:06:41.845Z,26.20
2018-07-22T10:09:10.976Z,26.20
2018-07-22T10:11:39.008Z,26.30
2018-07-22T10:14:07.047Z,26.20
2018-07-22T10:16:35.088Z,26.30
2018-07-22T10:19:03.133Z,26.30
2018-07-22T10:21:31.161Z,26.40
2018-07-22T10:23:59.199Z,26.50
2018-07-22T10:26:27.264Z,26.60
2018-07-22T10:28:55.309Z,26.60
2018-07-22T10:31:23.360Z,26.60
2018-07-22T10:33:51.404Z,26.70
2018-07-22T10:36:19.448Z,26.70
2018-07-22T10:38:47.529Z,26.70
2018-07-22T10:41:15.536Z,26.70
2018-07-22T10:43:43.578Z,26.70
2018-07-22T10:46:11.612Z,26.70
2018-07-22T10:48:39.717Z,26.60
2018-07-22T10:51:07.773Z,26.70
2018-07-22T10:53:35.805Z,26.70
2018-07-22T10:56:03.855Z,26.70
2018-07-22T11:00:59.776Z,26.80
2018-07-22T11:05:55.665Z,26.80
2018-07-22T11:08:23.684Z,26.80
2018-07-22T11:10:51.708Z,26.80
2018-07-22T11:13:19.764Z,26.70
2018-07-22T11:15:47.865Z,26.90
2018-07-22T11:18:15.899Z,26.90
2018-07-22T11:20:43.963Z,26.80
2018-07-22T11:23:12.051Z,26.70
2018-07-22T11:25:40.121Z,26.80
2018-07-22T11:28:08.188Z,26.70
2018-07-22T11:30:36.263Z,26.70
2018-07-22T11:33:04.322Z,27.00
2018-07-22T11:35:32.546Z,27.00
2018-07-22T11:38:00.585Z,27.00
2018-07-22T11:40:28.632Z,26.80
2018-07-22T11:42:56.668Z,26.70
2018-07-22T11:45:24.722Z,26.50
2018-07-22T11:47:52.772Z,26.70
2018-07-22T11:50:20.854Z,26.70
2018-07-22T11:52:48.879Z,26.70
2018-07-22T11:55:16.905Z,26.70
2018-07-22T11:57:44.959Z,26.70
2018-07-22T12:00:13.040Z,26.80
2018-07-22T12:02:41.030Z,27.00
2018-07-22T12:05:09.073Z,26.90
2018-07-22T12:07:37.172Z,26.60
2018-07-22T12:10:05.192Z,26.70
2018-07-22T12:12:33.249Z,26.70
2018-07-22T12:15:01.273Z,26.80
2018-07-22T12:17:29.320Z,26.90
2018-07-22T12:19:57.363Z,26.80
2018-07-22T12:22:25.395Z,26.70
2018-07-22T12:24:53.412Z,26.50
2018-07-22T12:27:21.631Z,26.50
2018-07-22T12:29:49.668Z,26.60
2018-07-22T12:32:17.707Z,26.70
2018-07-22T12:34:45.733Z,26.70
2018-07-22T12:37:13.748Z,26.70
2018-07-22T12:39:41.835Z,26.70
2018-07-22T12:42:09.964Z,26.70
2018-07-22T12:44:38.006Z,26.50
2018-07-22T12:47:06.250Z,26.40
2018-07-22T12:49:34.271Z,26.60
2018-07-22T12:52:02.328Z,26.60
2018-07-22T12:54:30.372Z,26.50
2018-07-22T12:56:58.388Z,26.50
2018-07-22T13:04:22.120Z,26.40
2018-07-22T13:06:50.158Z,26.50
2018-07-22T13:09:18.178Z,26.50
2018-07-22T13:11:46.195Z,26.50
2018-07-22T13:14:14.244Z,26.60
2018-07-22T13:16:42.267Z,26.50
2018-07-22T13:19:10.363Z,26.40
2018-07-22T13:21:38.392Z,26.30
2018-07-22T13:24:06.425Z,26.40
2018-07-22T13:26:34.465Z,26.50
2018-07-22T13:29:02.487Z,26.30
2018-07-22T13:31:30.544Z,26.30
2018-07-22T13:33:58.575Z,26.50
2018-07-22T13:36:26.768Z,26.50
2018-07-22T13:38:54.796Z,26.40
2018-07-22T13:41:22.832Z,26.30
2018-07-22T13:43:50.868Z,26.50
2018-07-22T13:46:19.204Z,26.30
2018-07-22T13:51:15.220Z,26.10
2018-07-22T13:53:43.375Z,26.10
2018-07-22T13:56:11.583Z,26.10
2018-07-22T13:58:39.612Z,26.30
2018-07-22T14:01:07.675Z,26.20
2018-07-22T14:03:35.703Z,26.10
2018-07-22T14:06:03.859Z,26.10
2018-07-22T14:08:31.869Z,26.10
2018-07-22T14:10:59.940Z,26.20
2018-07-22T14:13:28.014Z,25.90
2018-07-22T14:15:56.067Z,25.90
2018-07-22T14:18:24.092Z,25.90
2018-07-22T14:20:52.140Z,25.80
2018-07-22T14:23:20.169Z,25.80
2018-07-22T14:25:48.221Z,25.80
2018-07-22T14:28:16.241Z,26.00
2018-07-22T14:30:44.276Z,25.90
2018-07-22T14:33:12.295Z,25.80
2018-07-22T14:35:40.328Z,25.80
2018-07-22T14:38:08.340Z,25.70
2018-07-22T14:40:36.508Z,25.70
2018-07-22T14:43:04.510Z,25.50
2018-07-22T14:45:32.599Z,25.70
2018-07-22T14:48:00.640Z,25.70
2018-07-22T14:50:28.653Z,25.60
2018-07-22T14:52:56.693Z,25.60
2018-07-22T14:55:24.716Z,25.50
2018-07-22T14:57:52.775Z,25.50
2018-07-22T15:00:20.795Z,25.30
2018-07-22T15:02:48.808Z,25.60
2018-07-22T15:05:16.887Z,25.60
2018-07-22T15:07:44.911Z,25.60
2018-07-22T15:10:12.936Z,25.50
2018-07-22T15:12:40.988Z,25.40
2018-07-22T15:15:09.023Z,25.40
2018-07-22T15:17:37.060Z,25.40
2018-07-22T15:20:05.452Z,25.40
2018-07-22T15:22:33.513Z,25.60
2018-07-22T15:25:01.594Z,25.50
2018-07-22T15:27:29.880Z,25.30
2018-07-22T15:29:57.882Z,25.10
2018-07-22T15:32:25.916Z,25.10
2018-07-22T15:34:53.964Z,25.80
2018-07-22T15:37:21.993Z,26.40
2018-07-22T15:39:50.040Z,26.40
2018-07-22T15:42:18.084Z,25.80
2018-07-22T15:44:46.148Z,25.70
2018-07-22T15:47:14.242Z,26.20
2018-07-22T15:49:42.305Z,26.10
2018-07-22T15:52:10.322Z,26.50
2018-07-22T15:54:38.360Z,27.20
2018-07-22T16:04:29.987Z,27.50
2018-07-22T16:06:58.068Z,26.90
2018-07-22T16:09:26.053Z,26.60
2018-07-22T16:11:54.076Z,27.10
2018-07-22T16:14:22.084Z,27.60
2018-07-22T16:16:50.107Z,27.90
2018-07-22T16:19:18.190Z,27.30
2018-07-22T16:21:46.208Z,26.90
2018-07-22T16:24:14.248Z,26.80
2018-07-22T16:26:42.267Z,26.90
2018-07-22T16:29:10.327Z,26.90
2018-07-22T16:34:06.199Z,26.50
2018-07-22T16:36:34.236Z,26.50
2018-07-22T16:39:02.300Z,26.00
2018-07-22T16:41:30.312Z,25.90
2018-07-22T16:43:58.359Z,26.10
2018-07-22T16:46:26.384Z,25.90
2018-07-22T16:48:54.418Z,25.70
2018-07-22T16:51:22.444Z,26.20
2018-07-22T16:53:50.533Z,26.30
2018-07-22T16:56:18.517Z,26.50
2018-07-22T16:58:46.607Z,26.40
2018-07-22T17:01:14.678Z,26.50
2018-07-22T17:03:42.721Z,26.40
2018-07-22T17:08:38.609Z,26.20
2018-07-22T17:11:06.640Z,26.00
2018-07-22T17:13:34.670Z,25.70
2018-07-22T17:16:02.816Z,25.60
2018-07-22T17:18:30.879Z,25.50
2018-07-22T17:20:58.892Z,25.80
2018-07-22T17:23:27.030Z,26.10
2018-07-22T17:25:55.057Z,26.30
2018-07-22T17:28:23.072Z,26.50
2018-07-22T17:30:51.115Z,25.90
2018-07-22T17:33:19.139Z,25.70
2018-07-22T17:35:47.172Z,25.90
2018-07-22T17:38:15.220Z,25.90
2018-07-22T17:40:43.280Z,25.60
2018-07-22T17:43:11.344Z,25.40
2018-07-22T17:45:39.449Z,25.50
2018-07-22T17:48:07.482Z,25.30
2018-07-22T17:53:03.332Z,25.20
2018-07-22T17:55:31.355Z,25.30
2018-07-22T17:57:59.384Z,25.30
2018-07-22T18:00:27.432Z,25.20
2018-07-22T18:03:07.272Z,25.30
2018-07-22T18:05:35.353Z,25.30
2018-07-22T18:08:03.345Z,24.90
2018-07-22T18:10:31.356Z,24.60
2018-07-22T18:12:59.404Z,24.20
2018-07-22T18:15:27.471Z,24.00
2018-07-22T18:17:55.589Z,23.80
2018-07-22T18:20:23.560Z,23.60
2018-07-22T18:25:19.446Z,23.30
2018-07-22T18:27:47.488Z,23.20
2018-07-22T18:30:15.540Z,23.00
2018-07-22T18:32:43.556Z,22.80
2018-07-22T18:35:11.601Z,22.80
2018-07-22T18:37:39.655Z,22.80
2018-07-22T18:40:07.704Z,22.80
2018-07-22T18:42:35.804Z,22.70
2018-07-22T18:45:03.808Z,22.60
2018-07-22T18:47:31.872Z,22.40
2018-07-22T18:49:59.912Z,22.40
2018-07-22T18:52:27.944Z,22.20
2018-07-22T18:54:56.053Z,22.10
2018-07-22T18:57:24.052Z,21.90
2018-07-22T18:59:52.098Z,21.90
2018-07-22T19:02:20.121Z,21.90
2018-07-22T19:04:48.181Z,21.70
2018-07-22T19:07:16.232Z,21.50
2018-07-22T19:09:44.300Z,21.30
2018-07-22T19:12:12.392Z,21.30
2018-07-22T19:14:40.453Z,21.20
2018-07-22T19:17:08.472Z,21.00
2018-07-22T19:19:36.548Z,20.90
2018-07-22T19:22:04.668Z,20.90
2018-07-22T19:24:33.503Z,20.90
2018-07-22T19:29:29.667Z,20.80
2018-07-22T19:31:57.694Z,20.80
2018-07-22T19:34:25.740Z,20.70
2018-07-22T19:36:53.800Z,20.60
2018-07-22T19:39:21.832Z,20.60
2018-07-22T19:41:49.888Z,19.10
2018-07-22T19:44:17.940Z,20.60
2018-07-22T19:46:45.995Z,20.50
2018-07-22T19:49:14.112Z,20.50
2018-07-22T19:51:42.139Z,20.50
2018-07-22T19:54:10.164Z,20.40
2018-07-22T19:56:38.592Z,20.40
2018-07-22T19:59:06.620Z,20.30
2018-07-22T20:01:41.708Z,20.30
2018-07-22T20:04:11.496Z,20.30
2018-07-22T20:06:39.784Z,20.20
2018-07-22T20:09:08.631Z,20.10
2018-07-22T20:11:36.699Z,20.10
2018-07-22T20:14:05.855Z,20.10
2018-07-22T20:16:33.859Z,20.00
2018-07-22T20:19:01.916Z,20.00
2018-07-22T20:23:58.390Z,19.90
2018-07-22T20:26:26.416Z,19.90
2018-07-22T20:28:54.507Z,19.80
2018-07-22T20:33:50.445Z,19.80
2018-07-22T20:36:18.503Z,19.70
2018-07-22T20:38:46.759Z,19.70
2018-07-22T20:41:14.826Z,19.60
2018-07-22T20:43:42.939Z,19.60
2018-07-22T20:46:11.012Z,19.60
2018-07-22T20:48:39.095Z,19.50
2018-07-22T20:51:07.230Z,19.50
2018-07-22T20:53:35.208Z,19.40
2018-07-22T20:58:31.149Z,19.30
2018-07-22T21:03:27.581Z,19.20
2018-07-22T21:05:55.616Z,19.20
2018-07-22T21:08:23.675Z,19.20
2018-07-22T21:10:51.752Z,19.20
2018-07-22T21:13:22.418Z,19.20
2018-07-22T21:15:50.777Z,19.10
2018-07-22T21:18:18.862Z,19.10
2018-07-22T21:20:46.940Z,19.10
2018-07-22T21:23:14.999Z,19.00
2018-07-22T21:25:43.164Z,19.00
2018-07-22T21:28:11.228Z,19.00
2018-07-22T21:30:39.284Z,18.90
2018-07-22T21:33:07.332Z,18.90
2018-07-22T21:35:36.241Z,18.80
2018-07-22T21:38:04.276Z,18.90
2018-07-22T21:40:32.343Z,18.80
2018-07-22T21:43:00.416Z,18.80
2018-07-22T21:47:56.276Z,18.80
2018-07-22T21:50:24.312Z,18.80
2018-07-22T21:55:20.288Z,18.60
2018-07-22T21:57:48.305Z,18.50
2018-07-22T22:00:31.718Z,18.50
2018-07-22T22:03:01.036Z,18.50
2018-07-22T22:05:29.124Z,18.40
2018-07-22T22:10:25.476Z,18.40
2018-07-22T22:15:28.446Z,18.30
2018-07-22T22:17:58.587Z,18.20
2018-07-22T22:20:26.931Z,18.20
2018-07-22T22:22:55.112Z,18.20
2018-07-22T22:25:23.175Z,18.20
2018-07-22T22:27:51.255Z,18.30
2018-07-22T22:30:19.276Z,18.30
2018-07-22T22:32:47.938Z,18.20
2018-07-22T22:35:16.180Z,18.10
2018-07-22T22:37:44.788Z,18.10
2018-07-22T22:40:13.772Z,18.10
2018-07-22T22:42:42.989Z,18.00
2018-07-22T22:45:11.055Z,18.00
2018-07-22T22:47:39.101Z,18.00
2018-07-22T22:50:07.161Z,17.90
2018-07-22T22:52:35.217Z,17.90
2018-07-22T22:55:03.308Z,17.90
2018-07-22T22:57:31.340Z,17.90
2018-07-22T22:59:59.373Z,17.80
2018-07-22T23:05:02.092Z,17.80
2018-07-22T23:07:30.120Z,17.80
2018-07-22T23:09:58.160Z,17.70
2018-07-22T23:12:26.217Z,17.80
2018-07-22T23:14:54.256Z,17.80
2018-07-22T23:17:22.320Z,17.80
2018-07-22T23:19:50.348Z,17.70
2018-07-22T23:22:18.392Z,17.70
2018-07-22T23:24:46.440Z,17.70
2018-07-22T23:27:14.488Z,17.70
2018-07-22T23:29:42.523Z,17.60
2018-07-22T23:32:10.571Z,17.60
2018-07-22T23:34:38.611Z,17.60
2018-07-22T23:37:06.656Z,17.60
2018-07-22T23:39:34.678Z,17.50
2018-07-22T23:42:02.733Z,17.50
2018-07-22T23:46:58.600Z,17.50
2018-07-22T23:49:26.635Z,17.50
2018-07-22T23:51:54.660Z,17.50
2018-07-22T23:54:22.723Z,17.40
2018-07-22T23:56:50.793Z,17.50
2018-07-22T23:59:18.824Z,17.50
